EIDW

Dublin Airport

Dublin, Ireland
METAR EIDW 220630Z 22007KT 8000 -RA SCT008 BKN024 BKN035 09/08 Q1006 NOSIG
Observed Flight Rules
Apr-22 @ 06:30 UTC (19 minutes ago) Marginal Visual Flight Rules
Wind Visibility Clouds Conditions
220° at 7 knots 7,998 meters
  • Scattered at 800' AGL
  • Broken at 2,400' AGL
  • Broken at 3,500' AGL
  • Light Rain
Temperatures Readings
Current 9°C / 48°F
Dewpoint 8°C / 46°F
Humidity 94%
Altimeter 29.7" Hg
Pressure 1006 hPa
Elevation 85
METAR EIDW 220630Z 22007KT 8000 -RA SCT008 BKN024 BKN035 09/08 Q1006 NOSIG
Observed Flight Rules
Apr-22 @ 06:30 UTC
(19 minutes ago)
MVFR
Wind Visibility
220° at 7 knots 7,998 meters
Clouds
  • Scattered at 800' AGL
  • Broken at 2,400' AGL
  • Broken at 3,500' AGL
Conditions
  • Light Rain
Temperature Dewpoint
9°C / 48°F 8°C / 46°F
Humidity Altimeter Pressure
94% 29.7" Hg 1006 hPa